< Typhoon 197201 1972 Season Typhoon 197203 >
Typhoon 197202 (LOLA)
General InformationTrack Information on Google Maps || Disaster Info.ResourceGoogle EarthGE AnimationAtom FeedGeoJSON
Detalied Best Track (Time Zone = UTC)
Year Month Day Hour Lat. Long. Pressure (hPa) Wind (kt) Class Image Chart
1972 5 27 06 6.5 168.0 1006 0 2 -- Chart
1972 5 27 12 6.5 167.0 1006 0 2 -- Chart
1972 5 27 18 6.6 166.0 1004 0 2 -- Chart
1972 5 28 00 6.6 165.0 1004 0 2 -- Chart
1972 5 28 06 6.6 164.0 1002 0 2 -- Chart
1972 5 28 12 6.6 163.0 1002 0 2 -- Chart
1972 5 28 18 6.7 162.0 1002 0 2 -- Chart
1972 5 29 00 7.0 161.0 1002 0 2 -- Chart
1972 5 29 06 7.3 160.7 1000 0 2 -- Chart
1972 5 29 12 7.6 160.4 1000 0 2 -- Chart
1972 5 29 18 7.9 160.1 996 0 2 -- Chart
1972 5 30 00 8.3 159.9 996 0 2 -- Chart
1972 5 30 06 8.4 159.7 996 0 9 -- Chart
1972 5 30 12 8.6 159.4 996 0 9 -- Chart
1972 5 30 18 9.0 159.2 992 0 9 -- Chart
1972 5 31 00 9.8 158.8 990 0 9 -- Chart
1972 5 31 06 9.9 158.7 985 0 9 -- Chart
1972 5 31 12 10.0 158.5 985 0 9 -- Chart
1972 5 31 18 10.5 158.1 980 0 9 -- Chart
1972 6 1 00 11.3 157.5 975 0 9 -- Chart
1972 6 1 06 12.0 157.0 970 0 9 -- Chart
1972 6 1 12 12.6 156.4 965 0 9 -- Chart
1972 6 1 18 13.3 156.6 960 0 9 -- Chart
1972 6 2 00 14.0 157.1 960 0 9 -- Chart
1972 6 2 06 15.0 157.8 960 0 9 -- Chart
1972 6 2 12 15.7 158.3 960 0 9 -- Chart
1972 6 2 18 16.6 158.5 955 0 9 -- Chart
1972 6 3 00 17.7 158.7 960 0 9 -- Chart
1972 6 3 06 18.8 159.2 960 0 9 -- Chart
1972 6 3 12 20.0 160.0 965 0 9 -- Chart
1972 6 3 18 21.3 160.5 970 0 9 -- Chart
1972 6 4 00 22.5 161.0 975 0 9 -- Chart
1972 6 4 06 23.6 161.6 975 0 9 -- Chart
1972 6 4 12 24.7 161.8 980 0 9 -- Chart
1972 6 4 18 25.8 162.2 985 0 9 -- Chart
1972 6 5 00 27.4 163.0 985 0 9 -- Chart
1972 6 5 06 28.7 163.9 985 0 9 -- Chart
1972 6 5 12 30.2 164.9 990 0 9 -- Chart
1972 6 5 18 31.6 166.0 990 0 9 -- Chart
1972 6 6 00 33.0 167.0 990 0 9 -- Chart
1972 6 6 06 33.8 167.9 990 0 9 -- Chart
1972 6 6 12 34.6 168.8 990 0 9 -- Chart
1972 6 6 18 35.4 169.7 992 0 9 -- Chart
1972 6 7 00 36.2 170.9 992 0 9 -- Chart
1972 6 7 06 38.1 173.0 994 0 9 -- Chart
1972 6 7 12 40.2 176.0 996 0 9 -- Chart
1972 6 7 18 42.9 179.0 998 0 9 -- Chart
1972 6 8 00 46.0 182.0 1000 0 9 -- Chart
Japan Meteorological Agency Best Track Data | Correction Date : 1989-06-01
< Typhoon 197201 1972 Season Typhoon 197203 >

Help